KLSV/LSV METAR and TAF weather

Enter ICAO airport designator
Station Type Date Time Source
KLSV METAR 2024/07/13 02:55 UTC NOAA

KLSV 130255Z AUTO 14014G25KT 10SM CLR 41/04 A2977 RMK AO2 PK WND 14030/44 SLP046 T04120035 53018 $


Station Type Date Time Source
KLSV Decoded METAR 2024/07/13 02:55 UTC NOAA

Nellis Air Force Base, NV, United States (KLSV) 36-14N 115-02W
Jul 12, 2024 - 10:55 PM EDT / 2024.07.13 0255 UTC
Wind: from the SE (140 degrees) at 16 MPH (14 KT) gusting to 29 MPH (25 KT):0
Visibility: 10 mile(s):0
Sky conditions: clear
Temperature: 106.2 F (41.2 C)
Dew Point: 38.3 F (3.5 C)
Relative Humidity: 9%
Pressure (altimeter): 29.77 in. Hg (1008 hPa)
Pressure tendency: 0.05 inches (1.8 hPa) higher than three hours ago
ob: KLSV 130255Z AUTO 14014G25KT 10SM CLR 41/04 A2977 RMK AO2 PK WND 14030/44 SLP046 T04120035 53018
cycle: 3

Station Type Date Time Source
KLSV TAF 2024/07/12 23:42 UTC NOAA